Terminal Aerodrome Forecast
Issued by NWS Bismarck, ND

Home | Current Version | Previous Version | Graphics & Text | Print | Product List | Glossary On
Versions: 1 2 3 4 5 6 7 8 9 10 11 12 13 14 15 16 17 18 19 20 21 22 23 24 25 26 27 28
000
FTUS43 KBIS 241732
TAFISN
TAF
KISN 241732Z 2418/2518 36012KT P6SM VCSH OVC007
     FM250000 34017G24KT 6SM -SHRA BR OVC007
     FM250700 32017G25KT 6SM -SHRA BR OVC010
     FM250800 32017G25KT P6SM BKN035=

USA.gov is the U.S. government's official web portal to all federal, state and local government web resources and services.